METAR Formatted Surface Weather Observation
Issued by NWS Charleston, WV

Home | Current Version | Previous Version | Text Only | Print | Product List | Glossary On
Versions: 1 2 3 4 5 6 7 8 9 10 11 12 13 14 15
000
SAUS41 KRLX 212001 COR
MTRCRW
METAR KCRW 211954Z 17003KT 10SM SCT050TCU 31/18 A3008 RMK AO2 SLP177
TCU ALQDS T03060183 $



USA.gov is the U.S. government's official web portal to all federal, state and local government web resources and services.